createdAt,value
2017-07-11T00:00:45.139Z,1006.7
2017-07-11T00:01:44.840Z,1006.6
2017-07-11T00:02:43.791Z,1006.5
2017-07-11T00:03:43.381Z,1006.5
2017-07-11T00:04:42.837Z,1006.5
2017-07-11T00:05:41.930Z,1006.5
2017-07-11T00:06:41.276Z,1006.5
2017-07-11T00:07:40.599Z,1006.5
2017-07-11T00:08:40.048Z,1006.5
2017-07-11T00:09:39.016Z,1006.5
2017-07-11T00:10:38.584Z,1006.5
2017-07-11T00:11:37.902Z,1006.5
2017-07-11T00:12:37.353Z,1006.5
2017-07-11T00:13:36.550Z,1006.5
2017-07-11T00:14:36.003Z,1006.5
2017-07-11T00:15:35.069Z,1006.5
2017-07-11T00:16:34.386Z,1006.5
2017-07-11T00:17:33.721Z,1006.5
2017-07-11T00:18:33.174Z,1006.5
2017-07-11T00:19:32.355Z,1006.5
2017-07-11T00:20:31.794Z,1006.6
2017-07-11T00:21:31.312Z,1006.6
2017-07-11T00:22:30.498Z,1006.5
2017-07-11T00:23:29.554Z,1006.6
2017-07-11T00:24:28.996Z,1006.5
2017-07-11T00:25:28.568Z,1006.5
2017-07-11T00:26:27.496Z,1006.5
2017-07-11T00:27:27.196Z,1006.4
2017-07-11T00:28:26.398Z,1006.4
2017-07-11T00:29:25.850Z,1006.5
2017-07-11T00:30:25.052Z,1006.4
2017-07-11T00:31:24.247Z,1006.4
2017-07-11T00:32:23.805Z,1006.4
2017-07-11T00:33:23.123Z,1006.4
2017-07-11T00:34:22.207Z,1006.4
2017-07-11T00:34:52.455Z,1006.4
2017-07-11T00:35:22.849Z,1006.3
2017-07-11T00:35:53.223Z,1006.3
2017-07-11T00:37:20.090Z,1006.3
2017-07-11T00:38:19.656Z,1006.3
2017-07-11T00:39:18.728Z,1006.3
2017-07-11T00:40:18.296Z,1006.2
2017-07-11T00:41:17.613Z,1006.2
2017-07-11T00:42:16.670Z,1006.2
2017-07-11T00:43:16.241Z,1006.3
2017-07-11T00:44:15.446Z,1006.3
2017-07-11T00:45:15.018Z,1006.2
2017-07-11T00:46:13.958Z,1006.3
2017-07-11T00:46:44.218Z,1006.3
2017-07-11T00:47:14.480Z,1006.3
2017-07-11T00:47:44.853Z,1006.3
2017-07-11T00:48:15.477Z,1006.3
2017-07-11T00:48:45.865Z,1006.3
2017-07-11T00:49:16.501Z,1006.2
2017-07-11T00:49:47.009Z,1006.2
2017-07-11T00:51:10.728Z,1006.3
2017-07-11T00:52:09.977Z,1006.3
2017-07-11T00:53:09.536Z,1006.3
2017-07-11T00:54:08.598Z,1006.3
2017-07-11T00:55:08.039Z,1006.3
2017-07-11T00:56:07.370Z,1006.3
2017-07-11T00:57:06.812Z,1006.3
2017-07-11T00:58:05.880Z,1006.2
2017-07-11T01:00:04.595Z,1006.2
2017-07-11T01:01:03.801Z,1006.2
2017-07-11T01:02:03.248Z,1006.1
2017-07-11T01:03:02.437Z,1006.2
2017-07-11T01:04:02.133Z,1006.1
2017-07-11T01:05:01.443Z,1006.1
2017-07-11T01:06:00.643Z,1006.1
2017-07-11T01:06:59.841Z,1006.1
2017-07-11T01:07:30.483Z,1006.1
2017-07-11T01:08:00.859Z,1006.1
2017-07-11T01:08:58.546Z,1006
2017-07-11T01:09:57.637Z,1006
2017-07-11T01:10:57.209Z,1006
2017-07-11T01:11:56.408Z,1006
2017-07-11T01:12:55.850Z,1006.1
2017-07-11T01:13:55.168Z,1006.1
2017-07-11T01:14:54.227Z,1006
2017-07-11T01:15:53.552Z,1006
2017-07-11T01:16:53.133Z,1005.9
2017-07-11T01:17:52.337Z,1006
2017-07-11T01:18:51.663Z,1005.9
2017-07-11T01:19:51.178Z,1005.9
2017-07-11T01:20:50.383Z,1005.9
2017-07-11T01:21:49.457Z,1005.9
2017-07-11T01:22:48.906Z,1005.9
2017-07-11T01:23:48.224Z,1005.9
2017-07-11T01:24:47.421Z,1005.9
2017-07-11T01:25:46.864Z,1005.9
2017-07-11T01:26:46.278Z,1005.9
2017-07-11T01:27:45.723Z,1005.9
2017-07-11T01:29:44.183Z,1005.9
2017-07-11T01:30:43.510Z,1005.9
2017-07-11T01:31:42.888Z,1005.9
2017-07-11T01:32:41.959Z,1005.8
2017-07-11T01:33:41.528Z,1005.8
2017-07-11T01:34:40.725Z,1005.8
2017-07-11T01:35:40.292Z,1005.8
2017-07-11T01:36:39.481Z,1005.8
2017-07-11T01:37:38.931Z,1005.8
2017-07-11T01:38:38.129Z,1005.7
2017-07-11T01:39:37.220Z,1005.7
2017-07-11T01:40:36.674Z,1005.7
2017-07-11T01:41:36.247Z,1005.7
2017-07-11T01:42:35.323Z,1005.6
2017-07-11T01:43:34.519Z,1005.6
2017-07-11T01:44:34.099Z,1005.6
2017-07-11T01:45:33.178Z,1005.6
2017-07-11T01:46:32.622Z,1005.6
2017-07-11T01:47:32.077Z,1005.6
2017-07-11T01:48:31.027Z,1005.6
2017-07-11T01:49:30.591Z,1005.6
2017-07-11T01:50:29.781Z,1005.5
2017-07-11T01:51:29.215Z,1005.5
2017-07-11T01:52:28.533Z,1005.6
2017-07-11T01:53:27.609Z,1005.6
2017-07-11T01:54:26.929Z,1005.6
2017-07-11T01:55:26.380Z,1005.6
2017-07-11T01:56:25.591Z,1005.6
2017-07-11T01:57:25.179Z,1005.6
2017-07-11T01:58:24.625Z,1005.6
2017-07-11T01:59:23.681Z,1005.5
2017-07-11T02:00:22.952Z,1005.5
2017-07-11T02:01:22.601Z,1005.5
2017-07-11T02:02:21.483Z,1005.5
2017-07-11T02:03:20.809Z,1005.5
2017-07-11T02:04:20.264Z,1005.5
2017-07-11T02:05:19.461Z,1005.5
2017-07-11T02:06:19.041Z,1005.5
2017-07-11T02:07:17.989Z,1005.5
2017-07-11T02:08:17.438Z,1005.5
2017-07-11T02:09:16.631Z,1005.5
2017-07-11T02:10:16.235Z,1005.5
2017-07-11T02:11:15.303Z,1005.4
2017-07-11T02:12:14.755Z,1005.4
2017-07-11T02:13:14.343Z,1005.4
2017-07-11T02:14:13.406Z,1005.4
2017-07-11T02:14:44.031Z,1005.4
2017-07-11T02:15:14.297Z,1005.4
2017-07-11T02:15:44.793Z,1005.4
2017-07-11T02:17:11.419Z,1005.4
2017-07-11T02:18:10.866Z,1005.4
2017-07-11T02:19:10.064Z,1005.5
2017-07-11T02:20:09.517Z,1005.4
2017-07-11T02:21:08.466Z,1005.4
2017-07-11T02:22:07.790Z,1005.4
2017-07-11T02:23:07.117Z,1005.4
2017-07-11T02:24:06.450Z,1005.4
2017-07-11T02:25:06.133Z,1005.4
2017-07-11T02:26:05.071Z,1005.4
2017-07-11T02:27:04.271Z,1005.4
2017-07-11T02:28:03.580Z,1005.4
2017-07-11T02:29:02.911Z,1005.4
2017-07-11T02:30:02.232Z,1005.4
2017-07-11T02:31:01.566Z,1005.4
2017-07-11T02:32:01.251Z,1005.4
2017-07-11T02:33:00.452Z,1005.4
2017-07-11T02:33:59.767Z,1005.3
2017-07-11T02:34:58.959Z,1005.3
2017-07-11T02:35:58.277Z,1005.3
2017-07-11T02:36:57.856Z,1005.3
2017-07-11T02:37:56.817Z,1005.2
2017-07-11T02:38:56.137Z,1005.2
2017-07-11T02:39:55.460Z,1005.2
2017-07-11T02:40:54.658Z,1005.2
2017-07-11T02:41:53.983Z,1005.2
2017-07-11T02:42:53.442Z,1005.2
2017-07-11T02:43:52.638Z,1005.1
2017-07-11T02:44:52.210Z,1005.2
2017-07-11T02:45:51.551Z,1005.2
2017-07-11T02:46:50.995Z,1005.2
2017-07-11T02:47:50.180Z,1005.2
2017-07-11T02:48:49.256Z,1005.2
2017-07-11T02:49:48.581Z,1005.3
2017-07-11T02:50:47.779Z,1005.2
2017-07-11T02:51:47.230Z,1005.2
2017-07-11T02:52:46.422Z,1005.2
2017-07-11T02:53:45.983Z,1005.1
2017-07-11T02:54:45.062Z,1005.1
2017-07-11T02:55:15.572Z,1005.1
2017-07-11T02:55:45.821Z,1005.1
2017-07-11T02:56:16.451Z,1005.1
2017-07-11T02:56:46.826Z,1005.1
2017-07-11T02:57:17.461Z,1005.1
2017-07-11T02:58:42.579Z,1005.1
2017-07-11T02:59:41.918Z,1005.1
2017-07-11T03:00:41.243Z,1005.1
2017-07-11T03:01:40.188Z,1005.1
2017-07-11T03:02:39.641Z,1005.1
2017-07-11T03:03:38.963Z,1005.1
2017-07-11T03:04:38.289Z,1005.1
2017-07-11T03:05:37.615Z,1005.1
2017-07-11T03:06:37.069Z,1005.2
2017-07-11T03:07:07.450Z,1005.2
2017-07-11T03:07:37.825Z,1005.1
2017-07-11T03:08:08.201Z,1005.1
2017-07-11T03:08:38.576Z,1005.1
2017-07-11T03:09:08.836Z,1005.1
2017-07-11T03:09:39.472Z,1005.1
2017-07-11T03:10:34.390Z,1005
2017-07-11T03:11:33.344Z,1004.9
2017-07-11T03:12:32.788Z,1004.9
2017-07-11T03:13:32.118Z,1004.9
2017-07-11T03:14:31.235Z,1004.9
2017-07-11T03:15:30.558Z,1004.9
2017-07-11T03:16:29.881Z,1004.9
2017-07-11T03:17:29.320Z,1004.9
2017-07-11T03:18:28.899Z,1004.9
2017-07-11T03:19:27.964Z,1004.9
2017-07-11T03:20:27.149Z,1004.8
2017-07-11T03:21:26.598Z,1004.8
2017-07-11T03:22:25.919Z,1004.8
2017-07-11T03:23:25.360Z,1004.8
2017-07-11T03:25:23.947Z,1004.8
2017-07-11T03:26:23.258Z,1004.9
2017-07-11T03:27:22.636Z,1004.9
2017-07-11T03:28:21.689Z,1004.8
2017-07-11T03:29:21.388Z,1004.9
2017-07-11T03:30:20.716Z,1004.8
2017-07-11T03:31:19.907Z,1004.8
2017-07-11T03:32:19.108Z,1004.7
2017-07-11T03:33:18.178Z,1004.7
2017-07-11T03:34:17.628Z,1004.7
2017-07-11T03:35:17.069Z,1004.6
2017-07-11T03:36:16.146Z,1005.7
2017-07-11T03:37:15.711Z,1005.9
2017-07-11T03:38:15.144Z,1006
2017-07-11T03:39:14.471Z,1006.1
2017-07-11T03:40:13.813Z,1006.2
2017-07-11T03:42:12.391Z,1006.3
2017-07-11T03:43:11.347Z,1006.4
2017-07-11T03:44:10.685Z,1006.4
2017-07-11T03:45:10.134Z,1006.4
2017-07-11T03:46:09.592Z,1006.5
2017-07-11T03:47:08.919Z,1006.6
2017-07-11T03:48:07.865Z,1006.7
2017-07-11T03:49:07.431Z,1007
2017-07-11T03:50:06.747Z,1007
2017-07-11T03:51:06.208Z,1007
2017-07-11T03:52:05.529Z,1007
2017-07-11T03:53:04.486Z,1007
2017-07-11T03:54:03.793Z,1007
2017-07-11T03:55:03.116Z,1007
2017-07-11T03:56:02.692Z,1007
2017-07-11T03:57:02.133Z,1007
2017-07-11T03:58:01.466Z,1006.8
2017-07-11T03:59:00.545Z,1007
2017-07-11T03:59:59.731Z,1007
2017-07-11T04:00:59.226Z,1007
2017-07-11T04:01:58.552Z,1007
2017-07-11T04:02:57.754Z,1007
2017-07-11T04:03:28.012Z,1007
2017-07-11T04:03:58.387Z,1007
2017-07-11T04:04:56.190Z,1007
2017-07-11T04:05:55.891Z,1007.1
2017-07-11T04:06:54.984Z,1007.1
2017-07-11T04:07:54.424Z,1007.1
2017-07-11T04:08:53.873Z,1007.1
2017-07-11T04:09:52.840Z,1007.1
2017-07-11T04:10:52.041Z,1007.1
2017-07-11T04:11:51.362Z,1007.1
2017-07-11T04:12:51.062Z,1007.1
2017-07-11T04:13:50.013Z,1007.1
2017-07-11T04:14:49.456Z,1007.2
2017-07-11T04:15:48.901Z,1007.2
2017-07-11T04:16:48.233Z,1007.2
2017-07-11T04:17:47.671Z,1007.2
2017-07-11T04:18:46.623Z,1007.2
2017-07-11T04:19:46.195Z,1007.2
2017-07-11T04:20:45.512Z,1007.3
2017-07-11T04:21:44.599Z,1007.3
2017-07-11T04:22:43.793Z,1007.3
2017-07-11T04:23:43.111Z,1007.2
2017-07-11T04:24:42.684Z,1007.3
2017-07-11T04:25:42.129Z,1007.3
2017-07-11T04:26:41.201Z,1007.3
2017-07-11T04:27:40.394Z,1007.2
2017-07-11T04:28:40.094Z,1007.2
2017-07-11T04:29:39.173Z,1007.3
2017-07-11T04:30:38.618Z,1007.3
2017-07-11T04:31:37.689Z,1007.2
2017-07-11T04:32:37.391Z,1007.2
2017-07-11T04:33:36.448Z,1007.2
2017-07-11T04:34:36.022Z,1007
2017-07-11T04:35:34.977Z,1007.1
2017-07-11T04:36:34.226Z,1007
2017-07-11T04:37:33.492Z,1007.1
2017-07-11T04:38:32.830Z,1007.1
2017-07-11T04:39:32.281Z,1007.1
2017-07-11T04:40:31.862Z,1007
2017-07-11T04:41:30.801Z,1007
2017-07-11T04:42:30.115Z,1007.1
2017-07-11T04:43:29.428Z,1007.1
2017-07-11T04:43:59.810Z,1007.1
2017-07-11T04:44:30.304Z,1007.1
2017-07-11T04:45:28.124Z,1007.1
2017-07-11T04:46:27.438Z,1007
2017-07-11T04:47:26.881Z,1007.1
2017-07-11T04:48:26.333Z,1007
2017-07-11T04:49:25.390Z,1007.1
2017-07-11T04:50:24.967Z,1007.1
2017-07-11T04:51:24.232Z,1007.1
2017-07-11T04:52:23.555Z,1007.1
2017-07-11T04:53:22.502Z,1007.1
2017-07-11T04:54:22.073Z,1007
2017-07-11T04:54:52.320Z,1007
2017-07-11T04:55:22.580Z,1007.1
2017-07-11T04:55:52.842Z,1007.1
2017-07-11T04:56:23.089Z,1007.1
2017-07-11T04:56:53.721Z,1007.1
2017-07-11T04:58:19.220Z,1007.1
2017-07-11T04:59:18.652Z,1007.1
2017-07-11T05:00:17.971Z,1007
2017-07-11T05:02:16.688Z,1007
2017-07-11T05:03:16.003Z,1007.1
2017-07-11T05:04:15.321Z,1007.1
2017-07-11T05:05:14.271Z,1007.1
2017-07-11T05:06:13.585Z,1007.1
2017-07-11T05:07:13.040Z,1007.1
2017-07-11T05:08:12.494Z,1007.1
2017-07-11T05:09:11.813Z,1007.1
2017-07-11T05:10:10.999Z,1007.1
2017-07-11T05:11:10.397Z,1007
2017-07-11T05:12:09.711Z,1007.1
2017-07-11T05:13:08.899Z,1007.1
2017-07-11T05:14:08.116Z,1007.1
2017-07-11T05:15:07.561Z,1007
2017-07-11T05:16:06.754Z,1007.1
2017-07-11T05:17:06.074Z,1007.1
2017-07-11T05:18:05.397Z,1007.1
2017-07-11T05:19:04.709Z,1007.1
2017-07-11T05:20:04.402Z,1007.1
2017-07-11T05:21:03.478Z,1007.1
2017-07-11T05:22:03.041Z,1007.1
2017-07-11T05:23:02.110Z,1007.1
2017-07-11T05:24:01.299Z,1007.2
2017-07-11T05:25:00.674Z,1007.2
2017-07-11T05:26:00.119Z,1007.1
2017-07-11T05:26:59.313Z,1007.2
2017-07-11T05:27:58.756Z,1007.1
2017-07-11T05:28:58.076Z,1007.1
2017-07-11T05:29:57.402Z,1007.1
2017-07-11T05:30:56.494Z,1007.2
2017-07-11T05:31:55.802Z,1007.1
2017-07-11T05:32:55.516Z,1007.2
2017-07-11T05:33:54.698Z,1007.2
2017-07-11T05:34:53.765Z,1007.2
2017-07-11T05:35:53.083Z,1007.2
2017-07-11T05:37:51.919Z,1007.3
2017-07-11T05:38:51.109Z,1007.2
2017-07-11T05:39:50.434Z,1007.3
2017-07-11T05:40:49.879Z,1007.3
2017-07-11T05:41:49.072Z,1007.3
2017-07-11T05:42:48.389Z,1007.3
2017-07-11T05:43:47.710Z,1007.4
2017-07-11T05:44:47.160Z,1007.3
2017-07-11T05:45:46.352Z,1007.4
2017-07-11T05:46:45.801Z,1007.4
2017-07-11T05:47:44.990Z,1007.4
2017-07-11T05:48:44.436Z,1007.5
2017-07-11T05:49:43.875Z,1007.5
2017-07-11T05:50:42.943Z,1007.5
2017-07-11T05:51:42.060Z,1007.6
2017-07-11T05:52:12.679Z,1007.6
2017-07-11T05:52:42.891Z,1007.5
2017-07-11T05:53:13.136Z,1007.5
2017-07-11T05:53:43.519Z,1007.6
2017-07-11T05:54:14.028Z,1007.6
2017-07-11T05:55:39.399Z,1007.5
2017-07-11T05:56:38.856Z,1007.6
2017-07-11T05:57:38.178Z,1007.6
2017-07-11T05:58:37.374Z,1007.6
2017-07-11T05:59:37.010Z,1007.6
2017-07-11T06:00:36.092Z,1007.6
2017-07-11T06:01:35.533Z,1007.7
2017-07-11T06:02:34.726Z,1007.7
2017-07-11T06:03:34.057Z,1007.7
2017-07-11T06:04:04.444Z,1007.7
2017-07-11T06:04:35.077Z,1007.7
2017-07-11T06:05:05.715Z,1007.7
2017-07-11T06:06:31.962Z,1007.7
2017-07-11T06:07:31.409Z,1007.7
2017-07-11T06:08:30.860Z,1007.7
2017-07-11T06:09:29.928Z,1007.7
2017-07-11T06:10:29.491Z,1007.7
2017-07-11T06:11:28.576Z,1007.7
2017-07-11T06:12:27.769Z,1007.7
2017-07-11T06:13:27.462Z,1007.7
2017-07-11T06:14:26.530Z,1007.7
2017-07-11T06:15:26.112Z,1007.8
2017-07-11T06:16:25.056Z,1007.8
2017-07-11T06:17:24.618Z,1007.8
2017-07-11T06:18:24.065Z,1007.8
2017-07-11T06:19:23.251Z,1007.8
2017-07-11T06:20:22.706Z,1007.8
2017-07-11T06:21:22.025Z,1007.8
2017-07-11T06:21:52.393Z,1007.8
2017-07-11T06:22:22.647Z,1007.8
2017-07-11T06:22:53.029Z,1007.8
2017-07-11T06:24:19.898Z,1007.9
2017-07-11T06:25:19.231Z,1007.9
2017-07-11T06:26:18.549Z,1007.9
2017-07-11T06:27:17.864Z,1007.9
2017-07-11T06:28:16.952Z,1007.9
2017-07-11T06:29:16.523Z,1007.9
2017-07-11T06:30:15.845Z,1007.9
2017-07-11T06:31:15.027Z,1007.9
2017-07-11T06:32:14.340Z,1007.9
2017-07-11T06:33:13.917Z,1007.9
2017-07-11T06:34:12.981Z,1007.9
2017-07-11T06:35:12.541Z,1007.9
2017-07-11T06:36:11.493Z,1008
2017-07-11T06:37:11.180Z,1008
2017-07-11T06:38:10.237Z,1008
2017-07-11T06:39:09.800Z,1008
2017-07-11T06:40:09.122Z,1008
2017-07-11T06:41:08.319Z,1008
2017-07-11T06:42:07.638Z,1008
2017-07-11T06:43:07.218Z,1008
2017-07-11T06:44:06.288Z,1008
2017-07-11T06:44:36.660Z,1008
2017-07-11T06:45:06.911Z,1010.7
2017-07-11T06:45:37.170Z,1010.7
2017-07-11T06:47:04.307Z,1010.8
2017-07-11T06:48:03.635Z,1010.8
2017-07-11T06:49:03.082Z,1010.8
2017-07-11T06:50:02.153Z,1010.8
2017-07-11T06:51:01.599Z,1010.8
2017-07-11T06:52:00.788Z,1010.8
2017-07-11T06:53:00.244Z,1010.8
2017-07-11T06:53:59.567Z,1010.9
2017-07-11T06:54:58.643Z,1010.9
2017-07-11T06:55:58.082Z,1010.9
2017-07-11T06:56:57.532Z,1010.9
2017-07-11T06:57:57.114Z,1010.9
2017-07-11T06:58:56.267Z,1010.9
2017-07-11T06:59:55.711Z,1010.9
2017-07-11T07:00:54.909Z,1010.9
2017-07-11T07:01:54.342Z,1011
2017-07-11T07:02:53.661Z,1010.9
2017-07-11T07:03:53.000Z,1011
2017-07-11T07:04:52.201Z,1011
2017-07-11T07:05:51.526Z,1011
2017-07-11T07:06:50.851Z,1011
2017-07-11T07:07:50.295Z,1011
2017-07-11T07:08:49.485Z,1011
2017-07-11T07:09:48.722Z,1011
2017-07-11T07:10:47.930Z,1011
2017-07-11T07:11:47.255Z,1011
2017-07-11T07:12:46.590Z,1011
2017-07-11T07:13:46.166Z,1011
2017-07-11T07:14:45.483Z,1011
2017-07-11T07:15:44.942Z,1011
2017-07-11T07:16:15.460Z,1011
2017-07-11T07:16:45.719Z,1011
2017-07-11T07:17:43.537Z,1011
2017-07-11T07:18:42.735Z,1011
2017-07-11T07:19:42.307Z,1011
2017-07-11T07:20:41.620Z,1011
2017-07-11T07:21:40.961Z,1011.1
2017-07-11T07:22:40.287Z,1011.1
2017-07-11T07:23:39.349Z,1011.1
2017-07-11T07:24:38.904Z,1011.1
2017-07-11T07:25:37.968Z,1011.1
2017-07-11T07:26:37.548Z,1011
2017-07-11T07:27:36.877Z,1011
2017-07-11T07:28:36.321Z,1011.1
2017-07-11T07:29:35.392Z,1011.1
2017-07-11T07:30:34.595Z,1011.1
2017-07-11T07:31:34.060Z,1011.1
2017-07-11T07:32:33.253Z,1011.1
2017-07-11T07:33:32.701Z,1011.1
2017-07-11T07:34:32.030Z,1011
2017-07-11T07:35:31.604Z,1011.1
2017-07-11T07:36:30.673Z,1011.1
2017-07-11T07:37:30.122Z,1011.1
2017-07-11T07:38:29.443Z,1011.1
2017-07-11T07:39:28.639Z,1011.1
2017-07-11T07:40:27.952Z,1011.1
2017-07-11T07:40:58.457Z,1011.1
2017-07-11T07:42:26.722Z,1011.1
2017-07-11T07:43:26.039Z,1011.1
2017-07-11T07:44:25.365Z,1011.1
2017-07-11T07:45:24.945Z,1011.1
2017-07-11T07:46:24.021Z,1011.1
2017-07-11T07:47:23.354Z,1011.1
2017-07-11T07:48:22.923Z,1011.2
2017-07-11T07:49:22.116Z,1011.2
2017-07-11T07:50:21.574Z,1011.2
2017-07-11T07:51:20.767Z,1011.2
2017-07-11T07:52:20.343Z,1011.2
2017-07-11T07:53:19.290Z,1011.2
2017-07-11T07:53:49.671Z,1011.2
2017-07-11T07:55:18.070Z,1011.2
2017-07-11T07:56:17.384Z,1011.2
2017-07-11T07:57:16.906Z,1011.2
2017-07-11T07:58:16.358Z,1011.2
2017-07-11T07:59:15.806Z,1011.2
2017-07-11T08:00:15.128Z,1011.2
2017-07-11T08:01:14.203Z,1011.2
2017-07-11T08:02:13.384Z,1011.2
2017-07-11T08:03:13.081Z,1011.3
2017-07-11T08:04:12.521Z,1011.2
2017-07-11T08:05:11.715Z,1011.2
2017-07-11T08:06:10.953Z,1011.3
2017-07-11T08:07:10.401Z,1011.3
2017-07-11T08:08:09.490Z,1011.3
2017-07-11T08:09:08.818Z,1011.3
2017-07-11T08:10:08.266Z,1011.2
2017-07-11T08:11:07.717Z,1011.2
2017-07-11T08:11:37.986Z,1011.2
2017-07-11T08:12:08.240Z,1011.2
2017-07-11T08:12:38.500Z,1011.2
2017-07-11T08:13:09.013Z,1011.3
2017-07-11T08:13:39.401Z,1011.3
2017-07-11T08:15:05.017Z,1011.3
2017-07-11T08:16:04.213Z,1011.2
2017-07-11T08:17:03.662Z,1011.2
2017-07-11T08:18:02.857Z,1011.2
2017-07-11T08:19:02.423Z,1011.3
2017-07-11T08:20:01.862Z,1011.3
2017-07-11T08:21:01.054Z,1011.3
2017-07-11T08:22:00.390Z,1011.3
2017-07-11T08:22:59.960Z,1011.3
2017-07-11T08:23:59.147Z,1011.3
2017-07-11T08:24:58.706Z,1011.3
2017-07-11T08:25:58.023Z,1011.4
2017-07-11T08:26:57.222Z,1011.3
2017-07-11T08:27:56.284Z,1011.3
2017-07-11T08:28:55.984Z,1011.3
2017-07-11T08:29:55.432Z,1011.4
2017-07-11T08:30:54.516Z,1011.3
2017-07-11T08:31:53.966Z,1011.4
2017-07-11T08:32:53.163Z,1011.3
2017-07-11T08:33:52.735Z,1011.3
2017-07-11T08:34:51.685Z,1011.3
2017-07-11T08:35:22.335Z,1011.3
2017-07-11T08:35:52.664Z,1011.3
2017-07-11T08:38:49.388Z,1011.4
2017-07-11T08:39:48.590Z,1011.3
2017-07-11T08:40:47.916Z,1011.3
2017-07-11T08:41:47.245Z,1011.4
2017-07-11T08:42:46.456Z,1011.4
2017-07-11T08:43:45.909Z,1011.4
2017-07-11T08:44:45.366Z,1011.5
2017-07-11T08:45:44.818Z,1011.4
2017-07-11T08:46:44.130Z,1011.4
2017-07-11T08:47:43.448Z,1011.4
2017-07-11T08:48:42.637Z,1011.4
2017-07-11T08:49:41.970Z,1011.4
2017-07-11T08:50:41.674Z,1011.4
2017-07-11T08:51:40.628Z,1011.4
2017-07-11T08:52:40.318Z,1011.4
2017-07-11T08:53:39.268Z,1011.4
2017-07-11T08:54:38.973Z,1011.5
2017-07-11T08:55:38.173Z,1011.5
2017-07-11T08:56:37.756Z,1011.5
2017-07-11T08:57:37.079Z,1011.6
2017-07-11T08:58:36.402Z,1011.6
2017-07-11T08:59:35.476Z,1011.5
2017-07-11T09:00:34.786Z,1011.5
2017-07-11T09:01:34.405Z,1011.6
2017-07-11T09:02:33.726Z,1011.6
2017-07-11T09:03:33.176Z,1011.6
2017-07-11T09:04:32.374Z,1011.6
2017-07-11T09:05:31.567Z,1011.6
2017-07-11T09:06:30.900Z,1011.6
2017-07-11T09:07:30.343Z,1011.7
2017-07-11T09:08:29.800Z,1011.7
2017-07-11T09:09:00.295Z,1011.7
2017-07-11T09:09:30.799Z,1011.7
2017-07-11T09:10:28.312Z,1011.7
2017-07-11T09:11:27.638Z,1011.7
2017-07-11T09:12:27.085Z,1011.7
2017-07-11T09:13:26.794Z,1011.7
2017-07-11T09:14:25.750Z,1011.6
2017-07-11T09:15:25.326Z,1011.7
2017-07-11T09:16:24.395Z,1011.7
2017-07-11T09:17:23.845Z,1011.7
2017-07-11T09:18:23.170Z,1011.7
2017-07-11T09:19:22.880Z,1011.7
2017-07-11T09:20:21.959Z,1011.6
2017-07-11T09:20:52.342Z,1011.6
2017-07-11T09:21:23.036Z,1011.7
2017-07-11T09:21:53.407Z,1011.7
2017-07-11T09:22:23.913Z,1011.6
2017-07-11T09:22:54.530Z,1011.6
2017-07-11T09:24:19.396Z,1011.7
2017-07-11T09:25:18.984Z,1011.6
2017-07-11T09:26:18.046Z,1011.6
2017-07-11T09:27:17.610Z,1011.7
2017-07-11T09:28:16.928Z,1011.7
2017-07-11T09:29:16.249Z,1011.7
2017-07-11T09:30:15.447Z,1011.7
2017-07-11T09:31:15.138Z,1011.7
2017-07-11T09:32:14.576Z,1011.7
2017-07-11T09:33:13.528Z,1011.7
2017-07-11T09:34:13.218Z,1011.7
2017-07-11T09:35:12.284Z,1011.7
2017-07-11T09:36:11.861Z,1011.7
2017-07-11T09:37:11.299Z,1011.7
2017-07-11T09:38:10.628Z,1011.7
2017-07-11T09:39:09.761Z,1011.7
2017-07-11T09:40:09.087Z,1011.7
2017-07-11T09:41:08.661Z,1011.7
2017-07-11T09:42:08.121Z,1011.7
2017-07-11T09:43:07.457Z,1011.7
2017-07-11T09:44:06.641Z,1011.7
2017-07-11T09:45:06.099Z,1011.7
2017-07-11T09:46:05.545Z,1011.7
2017-07-11T09:47:04.734Z,1011.7
2017-07-11T09:48:04.433Z,1011.7
2017-07-11T09:49:03.508Z,1011.7
2017-07-11T09:50:02.712Z,1011.6
2017-07-11T09:51:02.172Z,1011.6
2017-07-11T09:52:01.619Z,1011.6
2017-07-11T09:53:01.258Z,1011.6
2017-07-11T09:54:00.578Z,1011.6
2017-07-11T09:54:59.768Z,1011.7
2017-07-11T09:55:58.943Z,1011.7
2017-07-11T09:56:58.393Z,1011.7
2017-07-11T09:57:57.786Z,1011.7
2017-07-11T09:58:57.129Z,1011.6
2017-07-11T09:59:56.460Z,1011.7
2017-07-11T10:00:26.983Z,1011.7
2017-07-11T10:00:57.498Z,1011.7
2017-07-11T10:01:28.136Z,1011.7
2017-07-11T10:01:58.501Z,1011.6
2017-07-11T10:02:29.131Z,1011.6
2017-07-11T10:02:59.763Z,1011.6
2017-07-11T10:03:30.264Z,1011.6
2017-07-11T10:04:53.736Z,1011.6
2017-07-11T10:05:53.054Z,1011.6
2017-07-11T10:06:52.363Z,1011.6
2017-07-11T10:07:51.682Z,1011.6
2017-07-11T10:08:51.132Z,1011.6
2017-07-11T10:09:50.204Z,1011.6
2017-07-11T10:10:49.771Z,1011.6
2017-07-11T10:11:49.334Z,1011.5
2017-07-11T10:12:48.525Z,1011.5
2017-07-11T10:13:18.832Z,1011.5
2017-07-11T10:13:49.471Z,1011.5
2017-07-11T10:14:19.865Z,1011.5
2017-07-11T10:14:50.489Z,1011.6
2017-07-11T10:15:20.744Z,1011.6
2017-07-11T10:15:51.253Z,1011.5
2017-07-11T10:16:21.852Z,1011.5
2017-07-11T10:17:45.572Z,1011.5
2017-07-11T10:18:45.019Z,1011.5
2017-07-11T10:19:44.341Z,1011.5
2017-07-11T10:20:43.529Z,1011.5
2017-07-11T10:21:43.229Z,1011.5
2017-07-11T10:22:42.178Z,1011.5
2017-07-11T10:23:41.895Z,1011.5
2017-07-11T10:24:41.101Z,1011.4
2017-07-11T10:25:40.420Z,1011.5
2017-07-11T10:26:40.182Z,1011.5
2017-07-11T10:27:39.443Z,1011.4
2017-07-11T10:28:38.628Z,1011.4
2017-07-11T10:29:38.332Z,1011.4
2017-07-11T10:30:37.663Z,1011.4
2017-07-11T10:31:37.130Z,1011.4
2017-07-11T10:33:35.730Z,1011.5
2017-07-11T10:34:35.188Z,1011.5
2017-07-11T10:35:34.635Z,1011.4
2017-07-11T10:36:33.964Z,1011.4
2017-07-11T10:37:33.403Z,1011.4
2017-07-11T10:39:32.236Z,1011.4
2017-07-11T10:40:31.546Z,1011.4
2017-07-11T10:41:30.981Z,1011.3
2017-07-11T10:42:30.424Z,1011.3
2017-07-11T10:43:29.738Z,1011.3
2017-07-11T10:44:28.932Z,1011.3
2017-07-11T10:45:28.318Z,1011.3
2017-07-11T10:46:27.887Z,1011.3
2017-07-11T10:47:27.201Z,1011.3
2017-07-11T10:48:26.692Z,1011.3
2017-07-11T10:49:26.007Z,1011.3
2017-07-11T10:50:25.465Z,1011.3
2017-07-11T10:51:24.790Z,1011.3
2017-07-11T10:52:24.108Z,1011.3
2017-07-11T10:53:23.431Z,1011.3
2017-07-11T10:54:22.878Z,1011.3
2017-07-11T10:55:22.320Z,1011.3
2017-07-11T10:56:22.009Z,1011.3
2017-07-11T10:57:21.325Z,1011.3
2017-07-11T10:58:20.648Z,1011.3
2017-07-11T10:59:19.969Z,1011.3
2017-07-11T11:00:19.292Z,1011.3
2017-07-11T11:01:18.750Z,1011.3
2017-07-11T11:02:18.322Z,1011.3
2017-07-11T11:03:17.523Z,1011.3
2017-07-11T11:04:17.340Z,1011.3
2017-07-11T11:05:16.663Z,1011.4
2017-07-11T11:06:15.888Z,1011.4
2017-07-11T11:07:15.570Z,1011.4
2017-07-11T11:08:14.655Z,1011.4
2017-07-11T11:09:14.531Z,1011.3
2017-07-11T11:10:13.432Z,1011.3
2017-07-11T11:10:44.068Z,1011.3
2017-07-11T11:11:14.697Z,1011.3
2017-07-11T11:11:45.210Z,1011.3
2017-07-11T11:12:15.458Z,1011.3
2017-07-11T11:12:46.084Z,1011.3
2017-07-11T11:13:16.339Z,1011.3
2017-07-11T11:14:11.257Z,1011.3
2017-07-11T11:15:10.584Z,1011.3
2017-07-11T11:16:10.148Z,1011.3
2017-07-11T11:17:09.849Z,1011.3
2017-07-11T11:18:08.913Z,1011.3
2017-07-11T11:19:08.613Z,1011.3
2017-07-11T11:20:07.809Z,1011.3
2017-07-11T11:21:07.255Z,1011.3
2017-07-11T11:22:06.574Z,1011.3
2017-07-11T11:23:06.008Z,1011.3
2017-07-11T11:24:05.451Z,1011.3
2017-07-11T11:25:05.018Z,1011.3
2017-07-11T11:26:04.476Z,1011.3
2017-07-11T11:27:04.045Z,1011.3
2017-07-11T11:28:03.487Z,1011.3
2017-07-11T11:29:02.800Z,1011.3
2017-07-11T11:30:02.178Z,1011.3
2017-07-11T11:31:01.870Z,1011.3
2017-07-11T11:32:01.315Z,1011.3
2017-07-11T11:33:00.260Z,1011.3
2017-07-11T11:33:59.969Z,1011.3
2017-07-11T11:34:59.167Z,1011.2
2017-07-11T11:35:58.654Z,1011.3
2017-07-11T11:36:58.055Z,1011.2
2017-07-11T11:37:57.889Z,1011.2
2017-07-11T11:38:56.956Z,1011.2
2017-07-11T11:39:56.644Z,1011.2
2017-07-11T11:40:55.841Z,1011.2
2017-07-11T11:41:55.546Z,1011.1
2017-07-11T11:42:55.110Z,1011.2
2017-07-11T11:43:25.493Z,1011.2
2017-07-11T11:43:55.870Z,1011.2
2017-07-11T11:44:53.813Z,1011.2
2017-07-11T11:45:52.998Z,1011.2
2017-07-11T11:46:52.461Z,1011.2
2017-07-11T11:47:52.162Z,1011.2
2017-07-11T11:48:51.483Z,1011.2
2017-07-11T11:49:50.942Z,1011.2
2017-07-11T11:50:50.407Z,1011.2
2017-07-11T11:51:20.792Z,1011.2
2017-07-11T11:51:51.296Z,1011.2
2017-07-11T11:52:21.929Z,1011.2
2017-07-11T11:52:52.186Z,1011.2
2017-07-11T11:53:48.990Z,1011.2
2017-07-11T11:54:48.444Z,1011.2
2017-07-11T11:55:47.812Z,1011.2